sensor_id;sensor_type;location;lat;lon;timestamp;P1;durP1;ratioP1;P2;durP2;ratioP2
77146;SDS011;66121;52.584;9.694;2023-09-12T00:01:41;23.77;;;15.35;;
77146;SDS011;66121;52.584;9.694;2023-09-12T00:04:27;20.17;;;14.50;;
77146;SDS011;66121;52.584;9.694;2023-09-12T00:07:13;21.02;;;15.63;;
77146;SDS011;66121;52.584;9.694;2023-09-12T00:09:59;19.70;;;15.43;;
77146;SDS011;66121;52.584;9.694;2023-09-12T00:12:44;22.45;;;15.52;;
77146;SDS011;66121;52.584;9.694;2023-09-12T00:15:30;23.10;;;16.00;;
77146;SDS011;66121;52.584;9.694;2023-09-12T00:18:16;22.92;;;14.30;;
77146;SDS011;66121;52.584;9.694;2023-09-12T00:21:02;22.13;;;14.95;;
77146;SDS011;66121;52.584;9.694;2023-09-12T00:23:48;21.63;;;15.13;;
77146;SDS011;66121;52.584;9.694;2023-09-12T00:26:34;23.50;;;16.20;;
77146;SDS011;66121;52.584;9.694;2023-09-12T00:29:19;19.70;;;16.38;;
77146;SDS011;66121;52.584;9.694;2023-09-12T00:32:05;25.25;;;16.45;;
77146;SDS011;66121;52.584;9.694;2023-09-12T00:34:50;21.92;;;15.93;;
77146;SDS011;66121;52.584;9.694;2023-09-12T00:37:36;24.27;;;16.88;;
77146;SDS011;66121;52.584;9.694;2023-09-12T00:40:22;23.48;;;16.80;;
77146;SDS011;66121;52.584;9.694;2023-09-12T00:43:07;26.10;;;17.17;;
77146;SDS011;66121;52.584;9.694;2023-09-12T00:45:53;22.75;;;15.85;;
77146;SDS011;66121;52.584;9.694;2023-09-12T00:48:39;21.13;;;15.00;;
77146;SDS011;66121;52.584;9.694;2023-09-12T00:51:24;28.65;;;15.88;;
77146;SDS011;66121;52.584;9.694;2023-09-12T00:54:11;21.00;;;14.82;;
77146;SDS011;66121;52.584;9.694;2023-09-12T00:56:57;27.60;;;16.17;;
77146;SDS011;66121;52.584;9.694;2023-09-12T00:59:43;22.20;;;15.05;;
77146;SDS011;66121;52.584;9.694;2023-09-12T01:02:28;23.02;;;14.63;;
77146;SDS011;66121;52.584;9.694;2023-09-12T01:05:15;19.95;;;14.98;;
77146;SDS011;66121;52.584;9.694;2023-09-12T01:08:01;28.38;;;16.90;;
77146;SDS011;66121;52.584;9.694;2023-09-12T01:10:48;22.58;;;15.30;;
77146;SDS011;66121;52.584;9.694;2023-09-12T01:13:35;20.95;;;14.45;;
77146;SDS011;66121;52.584;9.694;2023-09-12T01:16:20;20.35;;;15.75;;
77146;SDS011;66121;52.584;9.694;2023-09-12T01:19:06;21.95;;;15.27;;
77146;SDS011;66121;52.584;9.694;2023-09-12T01:28:14;21.02;;;15.18;;
77146;SDS011;66121;52.584;9.694;2023-09-12T01:31:02;22.45;;;15.73;;
77146;SDS011;66121;52.584;9.694;2023-09-12T01:33:48;24.25;;;16.20;;
77146;SDS011;66121;52.584;9.694;2023-09-12T01:36:34;19.92;;;15.18;;
77146;SDS011;66121;52.584;9.694;2023-09-12T01:39:19;19.85;;;15.95;;
77146;SDS011;66121;52.584;9.694;2023-09-12T01:42:05;23.92;;;16.02;;
77146;SDS011;66121;52.584;9.694;2023-09-12T01:44:55;24.85;;;16.00;;
77146;SDS011;66121;52.584;9.694;2023-09-12T01:47:41;20.95;;;15.32;;
77146;SDS011;66121;52.584;9.694;2023-09-12T01:50:27;26.67;;;16.42;;
77146;SDS011;66121;52.584;9.694;2023-09-12T01:53:14;19.92;;;15.02;;
77146;SDS011;66121;52.584;9.694;2023-09-12T01:56:00;23.13;;;16.63;;
77146;SDS011;66121;52.584;9.694;2023-09-12T01:58:46;18.67;;;15.15;;
77146;SDS011;66121;52.584;9.694;2023-09-12T02:01:31;21.35;;;14.93;;
77146;SDS011;66121;52.584;9.694;2023-09-12T02:04:17;21.90;;;16.35;;
77146;SDS011;66121;52.584;9.694;2023-09-12T02:07:03;23.45;;;15.48;;
77146;SDS011;66121;52.584;9.694;2023-09-12T02:09:49;21.17;;;16.52;;
77146;SDS011;66121;52.584;9.694;2023-09-12T02:12:34;22.30;;;17.40;;
77146;SDS011;66121;52.584;9.694;2023-09-12T02:15:20;26.73;;;20.17;;
77146;SDS011;66121;52.584;9.694;2023-09-12T02:18:06;29.55;;;19.50;;
77146;SDS011;66121;52.584;9.694;2023-09-12T02:20:51;26.02;;;19.80;;
77146;SDS011;66121;52.584;9.694;2023-09-12T02:23:37;27.92;;;19.63;;
77146;SDS011;66121;52.584;9.694;2023-09-12T02:26:22;33.05;;;19.35;;
77146;SDS011;66121;52.584;9.694;2023-09-12T02:29:08;29.88;;;18.63;;
77146;SDS011;66121;52.584;9.694;2023-09-12T02:31:55;30.08;;;20.33;;
77146;SDS011;66121;52.584;9.694;2023-09-12T02:34:41;27.77;;;19.20;;
77146;SDS011;66121;52.584;9.694;2023-09-12T02:37:27;27.70;;;19.02;;
77146;SDS011;66121;52.584;9.694;2023-09-12T02:40:12;25.75;;;20.25;;
77146;SDS011;66121;52.584;9.694;2023-09-12T02:43:00;25.20;;;19.33;;
77146;SDS011;66121;52.584;9.694;2023-09-12T02:45:45;31.17;;;21.85;;
77146;SDS011;66121;52.584;9.694;2023-09-12T02:48:31;28.27;;;20.55;;
77146;SDS011;66121;52.584;9.694;2023-09-12T02:51:16;27.27;;;21.15;;
77146;SDS011;66121;52.584;9.694;2023-09-12T02:54:02;31.33;;;21.00;;
77146;SDS011;66121;52.584;9.694;2023-09-12T02:56:48;31.77;;;22.48;;
77146;SDS011;66121;52.584;9.694;2023-09-12T02:59:33;31.60;;;20.85;;
77146;SDS011;66121;52.584;9.694;2023-09-12T03:02:19;37.75;;;23.98;;
77146;SDS011;66121;52.584;9.694;2023-09-12T03:05:05;34.90;;;24.67;;
77146;SDS011;66121;52.584;9.694;2023-09-12T03:07:51;35.35;;;24.25;;
77146;SDS011;66121;52.584;9.694;2023-09-12T03:10:36;33.03;;;22.67;;
77146;SDS011;66121;52.584;9.694;2023-09-12T03:13:25;35.80;;;23.30;;
77146;SDS011;66121;52.584;9.694;2023-09-12T03:16:11;31.50;;;21.83;;
77146;SDS011;66121;52.584;9.694;2023-09-12T03:18:57;29.80;;;22.55;;
77146;SDS011;66121;52.584;9.694;2023-09-12T03:21:43;29.33;;;21.90;;
77146;SDS011;66121;52.584;9.694;2023-09-12T03:24:29;30.10;;;22.35;;
77146;SDS011;66121;52.584;9.694;2023-09-12T03:27:14;30.20;;;21.67;;
77146;SDS011;66121;52.584;9.694;2023-09-12T03:30:00;35.28;;;24.45;;
77146;SDS011;66121;52.584;9.694;2023-09-12T03:32:46;29.13;;;22.38;;
77146;SDS011;66121;52.584;9.694;2023-09-12T03:35:32;32.97;;;24.63;;
77146;SDS011;66121;52.584;9.694;2023-09-12T03:38:18;37.15;;;24.88;;
77146;SDS011;66121;52.584;9.694;2023-09-12T03:41:04;39.42;;;25.73;;
77146;SDS011;66121;52.584;9.694;2023-09-12T03:43:49;38.63;;;27.00;;
77146;SDS011;66121;52.584;9.694;2023-09-12T03:46:35;41.35;;;26.52;;
77146;SDS011;66121;52.584;9.694;2023-09-12T03:49:21;31.63;;;22.10;;
77146;SDS011;66121;52.584;9.694;2023-09-12T03:52:07;37.13;;;23.55;;
77146;SDS011;66121;52.584;9.694;2023-09-12T03:54:53;46.05;;;25.73;;
77146;SDS011;66121;52.584;9.694;2023-09-12T03:57:38;46.35;;;27.48;;
77146;SDS011;66121;52.584;9.694;2023-09-12T04:00:24;56.22;;;31.40;;
77146;SDS011;66121;52.584;9.694;2023-09-12T04:03:10;58.90;;;33.13;;
77146;SDS011;66121;52.584;9.694;2023-09-12T04:05:55;60.63;;;33.35;;
77146;SDS011;66121;52.584;9.694;2023-09-12T04:08:41;65.30;;;34.05;;
77146;SDS011;66121;52.584;9.694;2023-09-12T04:11:26;61.33;;;32.45;;
77146;SDS011;66121;52.584;9.694;2023-09-12T04:14:13;49.72;;;30.98;;
77146;SDS011;66121;52.584;9.694;2023-09-12T04:16:59;54.72;;;32.35;;
77146;SDS011;66121;52.584;9.694;2023-09-12T04:19:45;58.22;;;32.30;;
77146;SDS011;66121;52.584;9.694;2023-09-12T04:22:30;60.45;;;32.40;;
77146;SDS011;66121;52.584;9.694;2023-09-12T04:25:16;55.35;;;30.02;;
77146;SDS011;66121;52.584;9.694;2023-09-12T04:28:02;48.42;;;28.45;;
77146;SDS011;66121;52.584;9.694;2023-09-12T04:30:47;47.25;;;27.48;;
77146;SDS011;66121;52.584;9.694;2023-09-12T04:33:33;41.70;;;25.50;;
77146;SDS011;66121;52.584;9.694;2023-09-12T04:36:19;44.70;;;28.25;;
77146;SDS011;66121;52.584;9.694;2023-09-12T04:39:05;45.63;;;25.60;;
77146;SDS011;66121;52.584;9.694;2023-09-12T04:41:51;38.30;;;25.25;;
77146;SDS011;66121;52.584;9.694;2023-09-12T04:44:38;44.20;;;25.77;;
77146;SDS011;66121;52.584;9.694;2023-09-12T04:47:25;41.88;;;25.48;;
77146;SDS011;66121;52.584;9.694;2023-09-12T04:50:11;38.25;;;24.00;;
77146;SDS011;66121;52.584;9.694;2023-09-12T04:52:57;33.40;;;23.08;;
77146;SDS011;66121;52.584;9.694;2023-09-12T04:55:42;37.15;;;23.17;;
77146;SDS011;66121;52.584;9.694;2023-09-12T04:58:28;32.25;;;21.25;;
77146;SDS011;66121;52.584;9.694;2023-09-12T05:01:14;32.75;;;20.67;;
77146;SDS011;66121;52.584;9.694;2023-09-12T05:03:59;35.78;;;20.85;;
77146;SDS011;66121;52.584;9.694;2023-09-12T05:06:45;31.20;;;19.42;;
77146;SDS011;66121;52.584;9.694;2023-09-12T05:09:32;26.15;;;18.67;;
77146;SDS011;66121;52.584;9.694;2023-09-12T05:12:17;31.58;;;18.90;;
77146;SDS011;66121;52.584;9.694;2023-09-12T05:15:03;31.92;;;20.63;;
77146;SDS011;66121;52.584;9.694;2023-09-12T05:17:49;28.08;;;18.85;;
77146;SDS011;66121;52.584;9.694;2023-09-12T05:20:34;28.95;;;19.42;;
77146;SDS011;66121;52.584;9.694;2023-09-12T05:23:20;25.70;;;18.77;;
77146;SDS011;66121;52.584;9.694;2023-09-12T05:26:06;23.50;;;16.50;;
77146;SDS011;66121;52.584;9.694;2023-09-12T05:28:51;21.15;;;15.23;;
77146;SDS011;66121;52.584;9.694;2023-09-12T05:31:38;21.52;;;14.23;;
77146;SDS011;66121;52.584;9.694;2023-09-12T05:34:23;20.10;;;13.95;;
77146;SDS011;66121;52.584;9.694;2023-09-12T05:37:09;21.63;;;12.43;;
77146;SDS011;66121;52.584;9.694;2023-09-12T05:39:55;24.50;;;12.88;;
77146;SDS011;66121;52.584;9.694;2023-09-12T05:42:40;19.80;;;11.80;;
77146;SDS011;66121;52.584;9.694;2023-09-12T05:45:26;20.80;;;11.70;;
77146;SDS011;66121;52.584;9.694;2023-09-12T05:48:14;20.55;;;11.52;;
77146;SDS011;66121;52.584;9.694;2023-09-12T05:51:00;20.40;;;10.95;;
77146;SDS011;66121;52.584;9.694;2023-09-12T05:53:46;16.23;;;9.70;;
77146;SDS011;66121;52.584;9.694;2023-09-12T05:56:31;20.23;;;9.40;;
77146;SDS011;66121;52.584;9.694;2023-09-12T05:59:17;14.18;;;9.10;;
77146;SDS011;66121;52.584;9.694;2023-09-12T06:02:03;14.43;;;8.57;;
77146;SDS011;66121;52.584;9.694;2023-09-12T06:04:50;11.80;;;8.20;;
77146;SDS011;66121;52.584;9.694;2023-09-12T06:07:35;14.07;;;8.90;;
77146;SDS011;66121;52.584;9.694;2023-09-12T06:10:21;13.73;;;9.55;;
77146;SDS011;66121;52.584;9.694;2023-09-12T06:13:07;17.63;;;10.68;;
77146;SDS011;66121;52.584;9.694;2023-09-12T06:15:53;17.50;;;10.88;;
77146;SDS011;66121;52.584;9.694;2023-09-12T06:18:38;18.05;;;10.63;;
77146;SDS011;66121;52.584;9.694;2023-09-12T06:21:24;17.65;;;11.65;;
77146;SDS011;66121;52.584;9.694;2023-09-12T06:27:02;13.10;;;10.35;;
77146;SDS011;66121;52.584;9.694;2023-09-12T06:29:48;18.98;;;11.10;;
77146;SDS011;66121;52.584;9.694;2023-09-12T06:32:34;22.05;;;12.60;;
77146;SDS011;66121;52.584;9.694;2023-09-12T06:35:20;18.98;;;11.25;;
77146;SDS011;66121;52.584;9.694;2023-09-12T06:38:06;14.75;;;11.50;;
77146;SDS011;66121;52.584;9.694;2023-09-12T06:40:51;19.08;;;12.63;;
77146;SDS011;66121;52.584;9.694;2023-09-12T06:43:37;17.45;;;11.80;;
77146;SDS011;66121;52.584;9.694;2023-09-12T06:46:22;20.15;;;13.15;;
77146;SDS011;66121;52.584;9.694;2023-09-12T06:49:08;21.08;;;14.80;;
77146;SDS011;66121;52.584;9.694;2023-09-12T06:51:54;21.55;;;14.80;;
77146;SDS011;66121;52.584;9.694;2023-09-12T06:54:39;20.58;;;14.38;;
77146;SDS011;66121;52.584;9.694;2023-09-12T06:57:25;22.88;;;14.73;;
77146;SDS011;66121;52.584;9.694;2023-09-12T07:00:11;21.92;;;14.82;;
77146;SDS011;66121;52.584;9.694;2023-09-12T07:02:57;20.40;;;14.02;;
77146;SDS011;66121;52.584;9.694;2023-09-12T07:05:43;19.42;;;13.70;;
77146;SDS011;66121;52.584;9.694;2023-09-12T07:08:30;22.83;;;15.07;;
77146;SDS011;66121;52.584;9.694;2023-09-12T07:11:16;19.05;;;13.23;;
77146;SDS011;66121;52.584;9.694;2023-09-12T07:14:02;16.83;;;11.45;;
77146;SDS011;66121;52.584;9.694;2023-09-12T07:16:49;16.95;;;11.73;;
77146;SDS011;66121;52.584;9.694;2023-09-12T07:19:34;16.48;;;12.10;;
77146;SDS011;66121;52.584;9.694;2023-09-12T07:22:20;18.85;;;11.90;;
77146;SDS011;66121;52.584;9.694;2023-09-12T07:25:06;15.05;;;11.23;;
77146;SDS011;66121;52.584;9.694;2023-09-12T07:27:54;17.60;;;11.32;;
77146;SDS011;66121;52.584;9.694;2023-09-12T07:30:40;20.38;;;12.68;;
77146;SDS011;66121;52.584;9.694;2023-09-12T07:33:25;15.18;;;10.95;;
77146;SDS011;66121;52.584;9.694;2023-09-12T07:36:11;16.27;;;12.43;;
77146;SDS011;66121;52.584;9.694;2023-09-12T07:38:57;16.52;;;11.63;;
77146;SDS011;66121;52.584;9.694;2023-09-12T07:41:43;17.60;;;11.50;;
77146;SDS011;66121;52.584;9.694;2023-09-12T07:44:28;21.85;;;12.48;;
77146;SDS011;66121;52.584;9.694;2023-09-12T07:47:14;19.10;;;13.30;;
77146;SDS011;66121;52.584;9.694;2023-09-12T07:50:00;19.75;;;14.50;;
77146;SDS011;66121;52.584;9.694;2023-09-12T07:52:46;17.65;;;11.95;;
77146;SDS011;66121;52.584;9.694;2023-09-12T07:55:36;16.27;;;11.88;;
77146;SDS011;66121;52.584;9.694;2023-09-12T07:58:31;17.98;;;12.55;;
77146;SDS011;66121;52.584;9.694;2023-09-12T08:01:17;17.65;;;11.90;;
77146;SDS011;66121;52.584;9.694;2023-09-12T08:04:02;15.10;;;11.45;;
77146;SDS011;66121;52.584;9.694;2023-09-12T08:06:49;17.17;;;10.93;;
77146;SDS011;66121;52.584;9.694;2023-09-12T08:09:48;17.00;;;10.32;;
77146;SDS011;66121;52.584;9.694;2023-09-12T08:12:36;13.88;;;9.50;;
77146;SDS011;66121;52.584;9.694;2023-09-12T08:15:24;16.52;;;11.70;;
77146;SDS011;66121;52.584;9.694;2023-09-12T08:18:10;19.95;;;11.38;;
77146;SDS011;66121;52.584;9.694;2023-09-12T08:20:56;17.42;;;11.65;;
77146;SDS011;66121;52.584;9.694;2023-09-12T08:23:42;14.40;;;11.02;;
77146;SDS011;66121;52.584;9.694;2023-09-12T08:26:27;17.50;;;11.65;;
77146;SDS011;66121;52.584;9.694;2023-09-12T08:29:13;15.63;;;10.13;;
77146;SDS011;66121;52.584;9.694;2023-09-12T08:31:59;18.08;;;12.43;;
77146;SDS011;66121;52.584;9.694;2023-09-12T08:34:45;18.35;;;12.48;;
77146;SDS011;66121;52.584;9.694;2023-09-12T08:37:31;19.50;;;12.40;;
77146;SDS011;66121;52.584;9.694;2023-09-12T08:40:16;15.60;;;11.27;;
77146;SDS011;66121;52.584;9.694;2023-09-12T08:43:02;16.58;;;11.23;;
77146;SDS011;66121;52.584;9.694;2023-09-12T08:45:51;12.90;;;9.27;;
77146;SDS011;66121;52.584;9.694;2023-09-12T08:48:37;15.48;;;10.27;;
77146;SDS011;66121;52.584;9.694;2023-09-12T08:51:23;17.90;;;11.70;;
77146;SDS011;66121;52.584;9.694;2023-09-12T08:54:09;14.52;;;9.63;;
77146;SDS011;66121;52.584;9.694;2023-09-12T08:56:55;12.52;;;9.93;;
77146;SDS011;66121;52.584;9.694;2023-09-12T08:59:41;15.85;;;10.38;;
77146;SDS011;66121;52.584;9.694;2023-09-12T09:02:28;12.52;;;9.23;;
77146;SDS011;66121;52.584;9.694;2023-09-12T09:05:15;16.20;;;9.98;;
77146;SDS011;66121;52.584;9.694;2023-09-12T09:08:02;15.93;;;10.68;;
77146;SDS011;66121;52.584;9.694;2023-09-12T09:10:54;14.05;;;10.23;;
77146;SDS011;66121;52.584;9.694;2023-09-12T09:13:43;14.88;;;9.88;;
77146;SDS011;66121;52.584;9.694;2023-09-12T09:16:29;14.48;;;10.45;;
77146;SDS011;66121;52.584;9.694;2023-09-12T09:19:15;18.63;;;11.48;;
77146;SDS011;66121;52.584;9.694;2023-09-12T09:22:05;18.10;;;11.55;;
77146;SDS011;66121;52.584;9.694;2023-09-12T09:24:53;18.95;;;12.07;;
77146;SDS011;66121;52.584;9.694;2023-09-12T09:27:55;21.05;;;12.63;;
77146;SDS011;66121;52.584;9.694;2023-09-12T09:30:45;17.08;;;12.02;;
77146;SDS011;66121;52.584;9.694;2023-09-12T09:33:36;16.92;;;11.85;;
77146;SDS011;66121;52.584;9.694;2023-09-12T09:36:22;16.20;;;11.90;;
77146;SDS011;66121;52.584;9.694;2023-09-12T09:39:08;17.52;;;12.77;;
77146;SDS011;66121;52.584;9.694;2023-09-12T09:41:55;15.10;;;10.63;;
77146;SDS011;66121;52.584;9.694;2023-09-12T09:44:42;17.75;;;11.77;;
77146;SDS011;66121;52.584;9.694;2023-09-12T09:47:28;20.48;;;12.80;;
77146;SDS011;66121;52.584;9.694;2023-09-12T09:50:14;20.23;;;12.48;;
77146;SDS011;66121;52.584;9.694;2023-09-12T09:53:00;21.02;;;13.27;;
77146;SDS011;66121;52.584;9.694;2023-09-12T09:55:47;18.23;;;11.95;;
77146;SDS011;66121;52.584;9.694;2023-09-12T09:58:32;17.98;;;12.70;;
77146;SDS011;66121;52.584;9.694;2023-09-12T10:01:19;19.48;;;11.93;;
77146;SDS011;66121;52.584;9.694;2023-09-12T10:04:06;19.67;;;12.93;;
77146;SDS011;66121;52.584;9.694;2023-09-12T10:06:53;15.75;;;10.85;;
77146;SDS011;66121;52.584;9.694;2023-09-12T10:12:34;13.90;;;10.35;;
77146;SDS011;66121;52.584;9.694;2023-09-12T10:15:21;15.05;;;12.23;;
77146;SDS011;66121;52.584;9.694;2023-09-12T10:18:08;13.73;;;10.82;;
77146;SDS011;66121;52.584;9.694;2023-09-12T10:20:57;17.92;;;11.23;;
77146;SDS011;66121;52.584;9.694;2023-09-12T10:23:50;14.85;;;10.30;;
77146;SDS011;66121;52.584;9.694;2023-09-12T10:26:36;20.10;;;10.85;;
77146;SDS011;66121;52.584;9.694;2023-09-12T10:29:28;15.00;;;10.05;;
77146;SDS011;66121;52.584;9.694;2023-09-12T10:32:14;16.40;;;11.82;;
77146;SDS011;66121;52.584;9.694;2023-09-12T10:35:02;14.80;;;11.40;;
77146;SDS011;66121;52.584;9.694;2023-09-12T10:37:49;17.80;;;10.93;;
77146;SDS011;66121;52.584;9.694;2023-09-12T10:40:36;17.75;;;11.25;;
77146;SDS011;66121;52.584;9.694;2023-09-12T10:43:23;17.05;;;11.57;;
77146;SDS011;66121;52.584;9.694;2023-09-12T10:46:10;14.50;;;12.10;;
77146;SDS011;66121;52.584;9.694;2023-09-12T10:48:56;17.85;;;11.52;;
77146;SDS011;66121;52.584;9.694;2023-09-12T10:51:42;17.80;;;12.30;;
77146;SDS011;66121;52.584;9.694;2023-09-12T10:54:36;17.80;;;12.25;;
77146;SDS011;66121;52.584;9.694;2023-09-12T10:57:23;16.52;;;12.25;;
77146;SDS011;66121;52.584;9.694;2023-09-12T11:00:10;16.25;;;12.18;;
77146;SDS011;66121;52.584;9.694;2023-09-12T11:02:56;18.30;;;12.98;;
77146;SDS011;66121;52.584;9.694;2023-09-12T11:05:51;22.48;;;13.63;;
77146;SDS011;66121;52.584;9.694;2023-09-12T11:08:40;16.35;;;11.60;;
77146;SDS011;66121;52.584;9.694;2023-09-12T11:11:26;18.83;;;12.88;;
77146;SDS011;66121;52.584;9.694;2023-09-12T11:14:11;15.93;;;11.95;;
77146;SDS011;66121;52.584;9.694;2023-09-12T11:19:52;20.48;;;12.82;;
77146;SDS011;66121;52.584;9.694;2023-09-12T11:22:47;16.88;;;11.90;;
77146;SDS011;66121;52.584;9.694;2023-09-12T11:25:33;20.08;;;13.77;;
77146;SDS011;66121;52.584;9.694;2023-09-12T11:28:19;18.48;;;12.82;;
77146;SDS011;66121;52.584;9.694;2023-09-12T11:31:04;17.40;;;11.25;;
77146;SDS011;66121;52.584;9.694;2023-09-12T11:33:51;15.75;;;10.75;;
77146;SDS011;66121;52.584;9.694;2023-09-12T11:36:39;15.75;;;11.30;;
77146;SDS011;66121;52.584;9.694;2023-09-12T11:39:30;14.77;;;10.30;;
77146;SDS011;66121;52.584;9.694;2023-09-12T11:42:17;18.60;;;11.75;;
77146;SDS011;66121;52.584;9.694;2023-09-12T11:45:05;15.07;;;11.10;;
77146;SDS011;66121;52.584;9.694;2023-09-12T11:47:54;15.32;;;10.82;;
77146;SDS011;66121;52.584;9.694;2023-09-12T11:50:41;15.13;;;10.40;;
77146;SDS011;66121;52.584;9.694;2023-09-12T11:53:27;16.48;;;10.43;;
77146;SDS011;66121;52.584;9.694;2023-09-12T11:56:16;15.07;;;11.02;;
77146;SDS011;66121;52.584;9.694;2023-09-12T11:59:01;17.75;;;10.73;;
77146;SDS011;66121;52.584;9.694;2023-09-12T12:01:47;14.15;;;10.20;;
77146;SDS011;66121;52.584;9.694;2023-09-12T12:04:33;13.85;;;9.93;;
77146;SDS011;66121;52.584;9.694;2023-09-12T12:07:20;13.82;;;10.57;;
77146;SDS011;66121;52.584;9.694;2023-09-12T12:10:05;16.17;;;10.55;;
77146;SDS011;66121;52.584;9.694;2023-09-12T12:12:52;15.23;;;10.75;;
77146;SDS011;66121;52.584;9.694;2023-09-12T12:15:38;13.18;;;10.50;;
77146;SDS011;66121;52.584;9.694;2023-09-12T12:18:24;13.02;;;10.02;;
77146;SDS011;66121;52.584;9.694;2023-09-12T12:21:10;15.95;;;10.13;;
77146;SDS011;66121;52.584;9.694;2023-09-12T12:24:01;17.73;;;11.05;;
77146;SDS011;66121;52.584;9.694;2023-09-12T12:26:48;13.90;;;10.20;;
77146;SDS011;66121;52.584;9.694;2023-09-12T12:29:34;16.92;;;11.55;;
77146;SDS011;66121;52.584;9.694;2023-09-12T12:32:20;14.90;;;10.85;;
77146;SDS011;66121;52.584;9.694;2023-09-12T12:35:06;15.63;;;10.60;;
77146;SDS011;66121;52.584;9.694;2023-09-12T12:37:53;16.50;;;10.50;;
77146;SDS011;66121;52.584;9.694;2023-09-12T12:40:41;13.20;;;10.35;;
77146;SDS011;66121;52.584;9.694;2023-09-12T12:43:27;14.50;;;10.88;;
77146;SDS011;66121;52.584;9.694;2023-09-12T12:46:13;12.90;;;9.63;;
77146;SDS011;66121;52.584;9.694;2023-09-12T12:48:58;14.43;;;9.80;;
77146;SDS011;66121;52.584;9.694;2023-09-12T12:51:45;15.68;;;10.73;;
77146;SDS011;66121;52.584;9.694;2023-09-12T12:54:32;15.00;;;9.77;;
77146;SDS011;66121;52.584;9.694;2023-09-12T12:57:19;12.73;;;10.07;;
77146;SDS011;66121;52.584;9.694;2023-09-12T13:00:09;11.77;;;9.25;;
77146;SDS011;66121;52.584;9.694;2023-09-12T13:02:56;9.18;;;7.47;;
77146;SDS011;66121;52.584;9.694;2023-09-12T13:05:41;11.25;;;9.02;;
77146;SDS011;66121;52.584;9.694;2023-09-12T13:08:27;10.32;;;7.97;;
77146;SDS011;66121;52.584;9.694;2023-09-12T13:11:13;10.50;;;8.35;;
77146;SDS011;66121;52.584;9.694;2023-09-12T13:14:00;11.52;;;8.55;;
77146;SDS011;66121;52.584;9.694;2023-09-12T13:16:46;9.45;;;7.50;;
77146;SDS011;66121;52.584;9.694;2023-09-12T13:19:32;7.60;;;6.22;;
77146;SDS011;66121;52.584;9.694;2023-09-12T13:22:17;9.80;;;6.93;;
77146;SDS011;66121;52.584;9.694;2023-09-12T13:25:04;9.55;;;6.68;;
77146;SDS011;66121;52.584;9.694;2023-09-12T13:27:50;10.70;;;6.85;;
77146;SDS011;66121;52.584;9.694;2023-09-12T13:30:36;8.05;;;6.38;;
77146;SDS011;66121;52.584;9.694;2023-09-12T13:33:22;9.80;;;6.55;;
77146;SDS011;66121;52.584;9.694;2023-09-12T13:36:07;8.93;;;6.57;;
77146;SDS011;66121;52.584;9.694;2023-09-12T13:38:53;8.93;;;6.40;;
77146;SDS011;66121;52.584;9.694;2023-09-12T13:41:39;8.05;;;6.60;;
77146;SDS011;66121;52.584;9.694;2023-09-12T13:44:25;10.27;;;7.22;;
77146;SDS011;66121;52.584;9.694;2023-09-12T13:47:11;8.90;;;6.40;;
77146;SDS011;66121;52.584;9.694;2023-09-12T13:49:56;10.52;;;6.68;;
77146;SDS011;66121;52.584;9.694;2023-09-12T13:52:42;9.30;;;6.10;;
77146;SDS011;66121;52.584;9.694;2023-09-12T13:55:28;7.32;;;5.75;;
77146;SDS011;66121;52.584;9.694;2023-09-12T13:58:13;7.03;;;5.65;;
77146;SDS011;66121;52.584;9.694;2023-09-12T14:00:59;8.93;;;5.82;;
77146;SDS011;66121;52.584;9.694;2023-09-12T14:03:44;7.97;;;5.53;;
77146;SDS011;66121;52.584;9.694;2023-09-12T14:06:31;6.40;;;5.03;;
77146;SDS011;66121;52.584;9.694;2023-09-12T14:09:18;6.18;;;5.20;;
77146;SDS011;66121;52.584;9.694;2023-09-12T14:12:04;8.45;;;5.90;;
77146;SDS011;66121;52.584;9.694;2023-09-12T14:14:51;7.80;;;4.90;;
77146;SDS011;66121;52.584;9.694;2023-09-12T14:17:37;6.90;;;5.53;;
77146;SDS011;66121;52.584;9.694;2023-09-12T14:20:22;7.55;;;5.28;;
77146;SDS011;66121;52.584;9.694;2023-09-12T14:23:08;8.38;;;4.78;;
77146;SDS011;66121;52.584;9.694;2023-09-12T14:25:54;7.15;;;4.97;;
77146;SDS011;66121;52.584;9.694;2023-09-12T14:28:39;7.80;;;5.10;;
77146;SDS011;66121;52.584;9.694;2023-09-12T14:31:25;7.53;;;4.97;;
77146;SDS011;66121;52.584;9.694;2023-09-12T14:34:11;7.32;;;4.90;;
77146;SDS011;66121;52.584;9.694;2023-09-12T14:36:57;5.70;;;5.10;;
77146;SDS011;66121;52.584;9.694;2023-09-12T14:39:42;6.18;;;4.93;;
77146;SDS011;66121;52.584;9.694;2023-09-12T14:42:28;6.70;;;4.80;;
77146;SDS011;66121;52.584;9.694;2023-09-12T14:45:14;5.72;;;5.10;;
77146;SDS011;66121;52.584;9.694;2023-09-12T14:48:00;6.00;;;5.32;;
77146;SDS011;66121;52.584;9.694;2023-09-12T14:50:46;10.13;;;5.38;;
77146;SDS011;66121;52.584;9.694;2023-09-12T14:53:34;7.28;;;4.60;;
77146;SDS011;66121;52.584;9.694;2023-09-12T14:56:20;7.28;;;5.07;;
77146;SDS011;66121;52.584;9.694;2023-09-12T14:59:05;9.25;;;5.07;;
77146;SDS011;66121;52.584;9.694;2023-09-12T15:01:51;5.82;;;4.38;;
77146;SDS011;66121;52.584;9.694;2023-09-12T15:04:37;7.22;;;4.40;;
77146;SDS011;66121;52.584;9.694;2023-09-12T15:07:23;7.47;;;4.90;;
77146;SDS011;66121;52.584;9.694;2023-09-12T15:10:09;9.13;;;4.57;;
77146;SDS011;66121;52.584;9.694;2023-09-12T15:12:55;5.47;;;4.65;;
77146;SDS011;66121;52.584;9.694;2023-09-12T15:15:41;5.72;;;4.72;;
77146;SDS011;66121;52.584;9.694;2023-09-12T15:18:27;7.22;;;5.15;;
77146;SDS011;66121;52.584;9.694;2023-09-12T15:21:12;6.75;;;4.68;;
77146;SDS011;66121;52.584;9.694;2023-09-12T15:23:58;6.47;;;4.78;;
77146;SDS011;66121;52.584;9.694;2023-09-12T15:26:44;5.93;;;4.63;;
77146;SDS011;66121;52.584;9.694;2023-09-12T15:29:29;8.32;;;5.00;;
77146;SDS011;66121;52.584;9.694;2023-09-12T15:32:15;6.43;;;4.75;;
77146;SDS011;66121;52.584;9.694;2023-09-12T15:35:00;8.30;;;5.22;;
77146;SDS011;66121;52.584;9.694;2023-09-12T15:37:46;6.55;;;5.13;;
77146;SDS011;66121;52.584;9.694;2023-09-12T15:40:32;6.43;;;4.85;;
77146;SDS011;66121;52.584;9.694;2023-09-12T15:43:18;6.18;;;4.25;;
77146;SDS011;66121;52.584;9.694;2023-09-12T15:46:04;7.40;;;5.15;;
77146;SDS011;66121;52.584;9.694;2023-09-12T15:48:49;5.85;;;4.80;;
77146;SDS011;66121;52.584;9.694;2023-09-12T15:51:35;7.90;;;5.15;;
77146;SDS011;66121;52.584;9.694;2023-09-12T15:54:21;5.78;;;4.80;;
77146;SDS011;66121;52.584;9.694;2023-09-12T15:57:06;6.32;;;4.45;;
77146;SDS011;66121;52.584;9.694;2023-09-12T15:59:52;7.10;;;4.90;;
77146;SDS011;66121;52.584;9.694;2023-09-12T16:02:38;6.80;;;5.07;;
77146;SDS011;66121;52.584;9.694;2023-09-12T16:05:24;6.03;;;5.05;;
77146;SDS011;66121;52.584;9.694;2023-09-12T16:08:10;6.55;;;5.03;;
77146;SDS011;66121;52.584;9.694;2023-09-12T16:10:57;8.82;;;5.38;;
77146;SDS011;66121;52.584;9.694;2023-09-12T16:13:42;6.90;;;5.03;;
77146;SDS011;66121;52.584;9.694;2023-09-12T16:16:28;7.07;;;5.15;;
77146;SDS011;66121;52.584;9.694;2023-09-12T16:19:14;11.52;;;7.72;;
77146;SDS011;66121;52.584;9.694;2023-09-12T16:21:59;6.05;;;4.90;;
77146;SDS011;66121;52.584;9.694;2023-09-12T16:24:45;8.07;;;5.10;;
77146;SDS011;66121;52.584;9.694;2023-09-12T16:27:31;7.28;;;5.63;;
77146;SDS011;66121;52.584;9.694;2023-09-12T16:30:16;7.40;;;5.10;;
77146;SDS011;66121;52.584;9.694;2023-09-12T16:33:02;6.45;;;4.72;;
77146;SDS011;66121;52.584;9.694;2023-09-12T16:35:49;6.32;;;5.57;;